sensor_id;sensor_type;location;lat;lon;timestamp;temperature;humidity
59128;DHT22;44912;52.754;5.994;2023-04-16T00:00:48;8.80;99.90
59128;DHT22;44912;52.754;5.994;2023-04-16T00:03:14;8.80;99.90
59128;DHT22;44912;52.754;5.994;2023-04-16T00:05:40;8.90;99.90
59128;DHT22;44912;52.754;5.994;2023-04-16T00:08:08;8.90;99.90
59128;DHT22;44912;52.754;5.994;2023-04-16T00:10:34;8.90;99.90
59128;DHT22;44912;52.754;5.994;2023-04-16T00:13:00;8.90;99.90
59128;DHT22;44912;52.754;5.994;2023-04-16T00:15:25;8.90;99.90
59128;DHT22;44912;52.754;5.994;2023-04-16T00:17:51;8.90;99.90
59128;DHT22;44912;52.754;5.994;2023-04-16T00:20:19;8.90;99.90
59128;DHT22;44912;52.754;5.994;2023-04-16T00:22:45;8.90;99.90
59128;DHT22;44912;52.754;5.994;2023-04-16T00:25:11;8.90;99.90
59128;DHT22;44912;52.754;5.994;2023-04-16T00:27:37;8.80;99.90
59128;DHT22;44912;52.754;5.994;2023-04-16T00:30:03;8.90;99.90
59128;DHT22;44912;52.754;5.994;2023-04-16T00:32:29;8.90;99.90
59128;DHT22;44912;52.754;5.994;2023-04-16T00:34:55;8.90;99.90
59128;DHT22;44912;52.754;5.994;2023-04-16T00:37:20;8.80;99.90
59128;DHT22;44912;52.754;5.994;2023-04-16T00:39:46;8.90;99.90
59128;DHT22;44912;52.754;5.994;2023-04-16T00:42:11;8.90;99.90
59128;DHT22;44912;52.754;5.994;2023-04-16T00:44:37;8.90;99.90
59128;DHT22;44912;52.754;5.994;2023-04-16T00:47:03;8.90;99.90
59128;DHT22;44912;52.754;5.994;2023-04-16T00:49:29;8.90;99.90
59128;DHT22;44912;52.754;5.994;2023-04-16T00:51:55;8.80;99.90
59128;DHT22;44912;52.754;5.994;2023-04-16T00:54:20;8.80;99.90
59128;DHT22;44912;52.754;5.994;2023-04-16T00:56:46;8.90;99.90
59128;DHT22;44912;52.754;5.994;2023-04-16T00:59:12;8.90;99.90
59128;DHT22;44912;52.754;5.994;2023-04-16T01:01:37;8.80;99.90
59128;DHT22;44912;52.754;5.994;2023-04-16T01:04:03;8.80;99.90
59128;DHT22;44912;52.754;5.994;2023-04-16T01:06:31;8.90;99.90
59128;DHT22;44912;52.754;5.994;2023-04-16T01:08:57;8.80;99.90
59128;DHT22;44912;52.754;5.994;2023-04-16T01:11:22;8.80;99.90
59128;DHT22;44912;52.754;5.994;2023-04-16T01:13:50;8.80;99.90
59128;DHT22;44912;52.754;5.994;2023-04-16T01:16:18;8.90;99.90
59128;DHT22;44912;52.754;5.994;2023-04-16T01:18:44;8.80;99.90
59128;DHT22;44912;52.754;5.994;2023-04-16T01:21:10;8.90;99.90
59128;DHT22;44912;52.754;5.994;2023-04-16T01:23:35;8.90;99.90
59128;DHT22;44912;52.754;5.994;2023-04-16T01:26:01;8.90;99.90
59128;DHT22;44912;52.754;5.994;2023-04-16T01:28:27;8.90;99.90
59128;DHT22;44912;52.754;5.994;2023-04-16T01:30:52;8.90;99.90
59128;DHT22;44912;52.754;5.994;2023-04-16T01:33:20;8.90;99.90
59128;DHT22;44912;52.754;5.994;2023-04-16T01:35:46;8.90;99.90
59128;DHT22;44912;52.754;5.994;2023-04-16T01:38:11;8.90;99.90
59128;DHT22;44912;52.754;5.994;2023-04-16T01:40:37;8.90;99.90
59128;DHT22;44912;52.754;5.994;2023-04-16T01:43:05;8.90;99.90
59128;DHT22;44912;52.754;5.994;2023-04-16T01:45:32;8.90;99.90
59128;DHT22;44912;52.754;5.994;2023-04-16T01:47:57;8.80;99.90
59128;DHT22;44912;52.754;5.994;2023-04-16T01:50:23;8.90;99.90
59128;DHT22;44912;52.754;5.994;2023-04-16T01:52:56;8.90;99.90
59128;DHT22;44912;52.754;5.994;2023-04-16T01:55:22;8.90;99.90
59128;DHT22;44912;52.754;5.994;2023-04-16T01:57:47;8.90;99.90
59128;DHT22;44912;52.754;5.994;2023-04-16T02:00:13;8.80;99.90
59128;DHT22;44912;52.754;5.994;2023-04-16T02:02:38;8.80;99.90
59128;DHT22;44912;52.754;5.994;2023-04-16T02:05:04;8.90;99.90
59128;DHT22;44912;52.754;5.994;2023-04-16T02:07:30;8.90;99.90
59128;DHT22;44912;52.754;5.994;2023-04-16T02:09:56;8.90;99.90
59128;DHT22;44912;52.754;5.994;2023-04-16T02:12:22;8.90;99.90
59128;DHT22;44912;52.754;5.994;2023-04-16T02:14:48;8.90;99.90
59128;DHT22;44912;52.754;5.994;2023-04-16T02:17:13;8.90;99.90
59128;DHT22;44912;52.754;5.994;2023-04-16T02:19:40;8.90;99.90
59128;DHT22;44912;52.754;5.994;2023-04-16T02:22:05;8.90;99.90
59128;DHT22;44912;52.754;5.994;2023-04-16T02:24:31;8.90;99.90
59128;DHT22;44912;52.754;5.994;2023-04-16T02:26:57;8.90;99.90
59128;DHT22;44912;52.754;5.994;2023-04-16T02:29:23;8.90;99.90
59128;DHT22;44912;52.754;5.994;2023-04-16T02:31:48;8.90;99.90
59128;DHT22;44912;52.754;5.994;2023-04-16T02:34:15;8.90;99.90
59128;DHT22;44912;52.754;5.994;2023-04-16T02:36:41;8.90;99.90
59128;DHT22;44912;52.754;5.994;2023-04-16T02:39:06;8.80;99.90
59128;DHT22;44912;52.754;5.994;2023-04-16T02:41:32;8.90;99.90
59128;DHT22;44912;52.754;5.994;2023-04-16T02:43:58;8.90;99.90
59128;DHT22;44912;52.754;5.994;2023-04-16T02:46:23;8.90;99.90
59128;DHT22;44912;52.754;5.994;2023-04-16T02:48:49;8.90;99.90
59128;DHT22;44912;52.754;5.994;2023-04-16T02:51:15;8.90;99.90
59128;DHT22;44912;52.754;5.994;2023-04-16T02:53:40;8.90;99.90
59128;DHT22;44912;52.754;5.994;2023-04-16T02:56:10;8.90;99.90
59128;DHT22;44912;52.754;5.994;2023-04-16T02:58:36;8.90;99.90
59128;DHT22;44912;52.754;5.994;2023-04-16T03:01:01;8.90;99.90
59128;DHT22;44912;52.754;5.994;2023-04-16T03:03:27;8.90;99.90
59128;DHT22;44912;52.754;5.994;2023-04-16T03:05:52;8.90;99.90
59128;DHT22;44912;52.754;5.994;2023-04-16T03:08:18;9.00;99.90
59128;DHT22;44912;52.754;5.994;2023-04-16T03:10:43;9.00;99.90
59128;DHT22;44912;52.754;5.994;2023-04-16T03:13:09;9.00;99.90
59128;DHT22;44912;52.754;5.994;2023-04-16T03:15:34;9.00;99.90
59128;DHT22;44912;52.754;5.994;2023-04-16T03:18:00;9.00;99.90
59128;DHT22;44912;52.754;5.994;2023-04-16T03:20:26;9.00;99.90
59128;DHT22;44912;52.754;5.994;2023-04-16T03:22:51;9.00;99.90
59128;DHT22;44912;52.754;5.994;2023-04-16T03:25:17;9.00;99.90
59128;DHT22;44912;52.754;5.994;2023-04-16T03:27:43;8.90;99.90
59128;DHT22;44912;52.754;5.994;2023-04-16T03:30:14;8.90;99.90
59128;DHT22;44912;52.754;5.994;2023-04-16T03:32:40;9.00;99.90
59128;DHT22;44912;52.754;5.994;2023-04-16T03:35:07;9.00;99.90
59128;DHT22;44912;52.754;5.994;2023-04-16T03:37:33;9.00;99.90
59128;DHT22;44912;52.754;5.994;2023-04-16T03:39:59;9.00;99.90
59128;DHT22;44912;52.754;5.994;2023-04-16T03:42:25;9.00;99.90
59128;DHT22;44912;52.754;5.994;2023-04-16T03:44:51;9.00;99.90
59128;DHT22;44912;52.754;5.994;2023-04-16T03:47:18;9.00;99.90
59128;DHT22;44912;52.754;5.994;2023-04-16T03:49:44;9.00;99.90
59128;DHT22;44912;52.754;5.994;2023-04-16T03:52:10;8.90;99.90
59128;DHT22;44912;52.754;5.994;2023-04-16T03:54:35;9.00;99.90
59128;DHT22;44912;52.754;5.994;2023-04-16T03:57:01;9.00;99.90
59128;DHT22;44912;52.754;5.994;2023-04-16T03:59:27;8.90;99.90
59128;DHT22;44912;52.754;5.994;2023-04-16T04:01:52;9.00;99.90
59128;DHT22;44912;52.754;5.994;2023-04-16T04:04:18;9.00;99.90
59128;DHT22;44912;52.754;5.994;2023-04-16T04:06:44;9.00;99.90
59128;DHT22;44912;52.754;5.994;2023-04-16T04:09:11;9.00;99.90
59128;DHT22;44912;52.754;5.994;2023-04-16T04:11:37;9.00;99.90
59128;DHT22;44912;52.754;5.994;2023-04-16T04:14:02;9.00;99.90
59128;DHT22;44912;52.754;5.994;2023-04-16T04:16:30;9.00;99.90
59128;DHT22;44912;52.754;5.994;2023-04-16T04:18:58;9.00;99.90
59128;DHT22;44912;52.754;5.994;2023-04-16T04:21:26;9.00;99.90
59128;DHT22;44912;52.754;5.994;2023-04-16T04:23:52;9.00;99.90
59128;DHT22;44912;52.754;5.994;2023-04-16T04:26:18;9.00;99.90
59128;DHT22;44912;52.754;5.994;2023-04-16T04:28:43;9.00;99.90
59128;DHT22;44912;52.754;5.994;2023-04-16T04:31:09;8.90;99.90
59128;DHT22;44912;52.754;5.994;2023-04-16T04:33:35;9.00;99.90
59128;DHT22;44912;52.754;5.994;2023-04-16T04:36:01;9.00;99.90
59128;DHT22;44912;52.754;5.994;2023-04-16T04:38:26;9.00;99.90
59128;DHT22;44912;52.754;5.994;2023-04-16T04:40:52;9.00;99.90
59128;DHT22;44912;52.754;5.994;2023-04-16T04:43:18;9.00;99.90
59128;DHT22;44912;52.754;5.994;2023-04-16T04:45:44;8.90;99.90
59128;DHT22;44912;52.754;5.994;2023-04-16T04:48:11;8.90;99.90
59128;DHT22;44912;52.754;5.994;2023-04-16T04:50:36;8.90;99.90
59128;DHT22;44912;52.754;5.994;2023-04-16T04:53:02;8.90;99.90
59128;DHT22;44912;52.754;5.994;2023-04-16T04:55:37;8.90;99.90
59128;DHT22;44912;52.754;5.994;2023-04-16T04:58:06;8.90;99.90
59128;DHT22;44912;52.754;5.994;2023-04-16T05:00:33;9.00;99.90
59128;DHT22;44912;52.754;5.994;2023-04-16T05:03:04;9.00;99.90
59128;DHT22;44912;52.754;5.994;2023-04-16T05:05:30;8.90;99.90
59128;DHT22;44912;52.754;5.994;2023-04-16T05:07:56;9.00;99.90
59128;DHT22;44912;52.754;5.994;2023-04-16T05:10:22;9.00;99.90
59128;DHT22;44912;52.754;5.994;2023-04-16T05:12:47;9.00;99.90
59128;DHT22;44912;52.754;5.994;2023-04-16T05:15:13;9.00;99.90
59128;DHT22;44912;52.754;5.994;2023-04-16T05:17:39;9.10;99.90
59128;DHT22;44912;52.754;5.994;2023-04-16T05:20:07;9.00;99.90
59128;DHT22;44912;52.754;5.994;2023-04-16T05:22:32;9.00;99.90
59128;DHT22;44912;52.754;5.994;2023-04-16T05:24:58;9.10;99.90
59128;DHT22;44912;52.754;5.994;2023-04-16T05:27:24;9.10;99.90
59128;DHT22;44912;52.754;5.994;2023-04-16T05:29:52;9.10;99.90
59128;DHT22;44912;52.754;5.994;2023-04-16T05:32:18;9.00;99.90
59128;DHT22;44912;52.754;5.994;2023-04-16T05:34:46;9.10;99.90
59128;DHT22;44912;52.754;5.994;2023-04-16T05:37:14;9.00;99.90
59128;DHT22;44912;52.754;5.994;2023-04-16T05:39:40;9.10;99.90
59128;DHT22;44912;52.754;5.994;2023-04-16T05:42:06;9.10;99.90
59128;DHT22;44912;52.754;5.994;2023-04-16T05:44:31;9.10;99.90
59128;DHT22;44912;52.754;5.994;2023-04-16T05:46:57;9.10;99.90
59128;DHT22;44912;52.754;5.994;2023-04-16T05:49:22;9.10;99.90
59128;DHT22;44912;52.754;5.994;2023-04-16T05:51:48;9.10;99.90
59128;DHT22;44912;52.754;5.994;2023-04-16T05:54:13;9.10;99.90
59128;DHT22;44912;52.754;5.994;2023-04-16T05:56:39;9.10;99.90
59128;DHT22;44912;52.754;5.994;2023-04-16T05:59:04;9.10;99.90
59128;DHT22;44912;52.754;5.994;2023-04-16T06:01:31;9.10;99.90
59128;DHT22;44912;52.754;5.994;2023-04-16T06:03:57;9.20;99.90
59128;DHT22;44912;52.754;5.994;2023-04-16T06:06:22;9.20;99.90
59128;DHT22;44912;52.754;5.994;2023-04-16T06:08:48;9.20;99.90
59128;DHT22;44912;52.754;5.994;2023-04-16T06:11:13;9.20;99.90
59128;DHT22;44912;52.754;5.994;2023-04-16T06:13:39;9.20;99.90
59128;DHT22;44912;52.754;5.994;2023-04-16T06:16:05;9.30;99.90
59128;DHT22;44912;52.754;5.994;2023-04-16T06:18:30;9.30;99.90
59128;DHT22;44912;52.754;5.994;2023-04-16T06:20:56;9.30;99.90
59128;DHT22;44912;52.754;5.994;2023-04-16T06:23:23;9.30;99.90
59128;DHT22;44912;52.754;5.994;2023-04-16T06:25:49;9.30;99.90
59128;DHT22;44912;52.754;5.994;2023-04-16T06:28:14;9.30;99.90
59128;DHT22;44912;52.754;5.994;2023-04-16T06:30:40;9.30;99.90
59128;DHT22;44912;52.754;5.994;2023-04-16T06:33:06;9.30;99.90
59128;DHT22;44912;52.754;5.994;2023-04-16T06:35:31;9.30;99.90
59128;DHT22;44912;52.754;5.994;2023-04-16T06:37:57;9.40;99.90
59128;DHT22;44912;52.754;5.994;2023-04-16T06:40:22;9.30;99.90
59128;DHT22;44912;52.754;5.994;2023-04-16T06:42:48;9.40;99.90
59128;DHT22;44912;52.754;5.994;2023-04-16T06:45:14;9.40;99.90
59128;DHT22;44912;52.754;5.994;2023-04-16T06:47:39;9.50;99.90
59128;DHT22;44912;52.754;5.994;2023-04-16T06:50:06;9.50;99.90
59128;DHT22;44912;52.754;5.994;2023-04-16T06:52:31;9.50;99.90
59128;DHT22;44912;52.754;5.994;2023-04-16T06:54:57;9.60;99.90
59128;DHT22;44912;52.754;5.994;2023-04-16T06:57:23;9.60;99.90
59128;DHT22;44912;52.754;5.994;2023-04-16T06:59:48;9.60;99.90
59128;DHT22;44912;52.754;5.994;2023-04-16T07:02:14;9.60;99.90
59128;DHT22;44912;52.754;5.994;2023-04-16T07:04:40;9.70;99.90
59128;DHT22;44912;52.754;5.994;2023-04-16T07:07:05;9.70;99.90
59128;DHT22;44912;52.754;5.994;2023-04-16T07:09:31;9.70;99.90
59128;DHT22;44912;52.754;5.994;2023-04-16T07:11:56;9.60;99.90
59128;DHT22;44912;52.754;5.994;2023-04-16T07:14:22;9.70;99.90
59128;DHT22;44912;52.754;5.994;2023-04-16T07:16:48;9.70;99.90
59128;DHT22;44912;52.754;5.994;2023-04-16T07:19:13;9.70;99.90
59128;DHT22;44912;52.754;5.994;2023-04-16T07:21:39;9.70;99.90
59128;DHT22;44912;52.754;5.994;2023-04-16T07:24:06;9.70;99.90
59128;DHT22;44912;52.754;5.994;2023-04-16T07:26:31;9.80;99.90
59128;DHT22;44912;52.754;5.994;2023-04-16T07:28:57;9.80;99.90
59128;DHT22;44912;52.754;5.994;2023-04-16T07:31:23;9.80;99.90
59128;DHT22;44912;52.754;5.994;2023-04-16T07:33:48;9.80;99.90
59128;DHT22;44912;52.754;5.994;2023-04-16T07:36:14;9.80;99.90
59128;DHT22;44912;52.754;5.994;2023-04-16T07:38:43;9.80;99.90
59128;DHT22;44912;52.754;5.994;2023-04-16T07:41:08;9.80;99.90
59128;DHT22;44912;52.754;5.994;2023-04-16T07:43:34;9.80;99.90
59128;DHT22;44912;52.754;5.994;2023-04-16T07:46:00;9.90;99.90
59128;DHT22;44912;52.754;5.994;2023-04-16T07:48:25;9.90;99.90
59128;DHT22;44912;52.754;5.994;2023-04-16T07:50:51;9.90;99.90
59128;DHT22;44912;52.754;5.994;2023-04-16T07:53:17;9.90;99.90
59128;DHT22;44912;52.754;5.994;2023-04-16T07:55:42;10.00;99.90
59128;DHT22;44912;52.754;5.994;2023-04-16T07:58:08;10.10;99.90
59128;DHT22;44912;52.754;5.994;2023-04-16T08:00:34;10.10;99.90
59128;DHT22;44912;52.754;5.994;2023-04-16T08:03:00;10.10;99.90
59128;DHT22;44912;52.754;5.994;2023-04-16T08:05:25;10.20;99.90
59128;DHT22;44912;52.754;5.994;2023-04-16T08:07:51;10.30;99.90
59128;DHT22;44912;52.754;5.994;2023-04-16T08:10:16;10.40;99.90
59128;DHT22;44912;52.754;5.994;2023-04-16T08:12:42;10.40;99.90
59128;DHT22;44912;52.754;5.994;2023-04-16T08:15:08;10.40;99.90
59128;DHT22;44912;52.754;5.994;2023-04-16T08:17:33;10.50;99.90
59128;DHT22;44912;52.754;5.994;2023-04-16T08:19:59;10.50;99.90
59128;DHT22;44912;52.754;5.994;2023-04-16T08:22:25;10.60;99.90
59128;DHT22;44912;52.754;5.994;2023-04-16T08:24:51;10.60;99.90
59128;DHT22;44912;52.754;5.994;2023-04-16T08:27:17;10.60;99.90
59128;DHT22;44912;52.754;5.994;2023-04-16T08:29:42;10.50;99.90
59128;DHT22;44912;52.754;5.994;2023-04-16T08:32:08;10.60;99.90
59128;DHT22;44912;52.754;5.994;2023-04-16T08:34:35;10.60;99.90
59128;DHT22;44912;52.754;5.994;2023-04-16T08:37:01;10.70;99.90
59128;DHT22;44912;52.754;5.994;2023-04-16T08:39:26;10.70;99.90
59128;DHT22;44912;52.754;5.994;2023-04-16T08:41:53;10.70;99.90
59128;DHT22;44912;52.754;5.994;2023-04-16T08:44:25;10.80;99.90
59128;DHT22;44912;52.754;5.994;2023-04-16T08:46:53;10.90;99.90
59128;DHT22;44912;52.754;5.994;2023-04-16T08:49:23;10.90;99.90
59128;DHT22;44912;52.754;5.994;2023-04-16T08:51:51;11.00;99.90
59128;DHT22;44912;52.754;5.994;2023-04-16T08:54:38;11.10;99.90
59128;DHT22;44912;52.754;5.994;2023-04-16T08:57:09;11.20;99.90
59128;DHT22;44912;52.754;5.994;2023-04-16T08:59:39;11.20;99.90
59128;DHT22;44912;52.754;5.994;2023-04-16T09:02:05;11.40;99.90
59128;DHT22;44912;52.754;5.994;2023-04-16T09:04:31;11.40;99.90
59128;DHT22;44912;52.754;5.994;2023-04-16T09:06:58;11.50;99.90
59128;DHT22;44912;52.754;5.994;2023-04-16T09:09:25;11.60;99.90
59128;DHT22;44912;52.754;5.994;2023-04-16T09:11:51;11.60;99.90
59128;DHT22;44912;52.754;5.994;2023-04-16T09:14:18;11.60;99.90
59128;DHT22;44912;52.754;5.994;2023-04-16T09:16:45;11.60;99.90
59128;DHT22;44912;52.754;5.994;2023-04-16T09:19:13;11.60;99.90
59128;DHT22;44912;52.754;5.994;2023-04-16T09:21:44;11.60;99.90
59128;DHT22;44912;52.754;5.994;2023-04-16T09:24:10;11.60;99.90
59128;DHT22;44912;52.754;5.994;2023-04-16T09:26:36;11.60;99.90
59128;DHT22;44912;52.754;5.994;2023-04-16T09:29:02;11.50;99.90
59128;DHT22;44912;52.754;5.994;2023-04-16T09:31:27;11.50;99.90
59128;DHT22;44912;52.754;5.994;2023-04-16T09:34:04;11.50;99.90
59128;DHT22;44912;52.754;5.994;2023-04-16T09:36:30;11.60;99.90
59128;DHT22;44912;52.754;5.994;2023-04-16T09:38:57;11.60;99.90
59128;DHT22;44912;52.754;5.994;2023-04-16T09:41:29;11.60;99.90
59128;DHT22;44912;52.754;5.994;2023-04-16T09:43:58;11.70;99.90
59128;DHT22;44912;52.754;5.994;2023-04-16T09:47:02;11.80;99.90
59128;DHT22;44912;52.754;5.994;2023-04-16T09:49:20;11.80;99.90
59128;DHT22;44912;52.754;5.994;2023-04-16T09:51:47;11.80;99.90
59128;DHT22;44912;52.754;5.994;2023-04-16T09:54:15;11.90;99.90
59128;DHT22;44912;52.754;5.994;2023-04-16T09:56:42;11.90;99.90
59128;DHT22;44912;52.754;5.994;2023-04-16T09:59:10;12.00;99.90
59128;DHT22;44912;52.754;5.994;2023-04-16T10:01:41;12.10;99.90
59128;DHT22;44912;52.754;5.994;2023-04-16T10:04:07;12.10;99.90
59128;DHT22;44912;52.754;5.994;2023-04-16T10:06:33;12.20;99.90
59128;DHT22;44912;52.754;5.994;2023-04-16T10:08:58;12.10;99.90
59128;DHT22;44912;52.754;5.994;2023-04-16T10:11:24;12.00;99.90
59128;DHT22;44912;52.754;5.994;2023-04-16T10:13:50;12.00;99.90
59128;DHT22;44912;52.754;5.994;2023-04-16T10:16:17;12.10;99.90
59128;DHT22;44912;52.754;5.994;2023-04-16T10:18:44;12.00;99.90
59128;DHT22;44912;52.754;5.994;2023-04-16T10:21:10;12.00;99.90
59128;DHT22;44912;52.754;5.994;2023-04-16T10:23:38;12.10;99.90
59128;DHT22;44912;52.754;5.994;2023-04-16T10:26:04;12.20;99.90
59128;DHT22;44912;52.754;5.994;2023-04-16T10:28:30;12.30;99.90
59128;DHT22;44912;52.754;5.994;2023-04-16T10:30:57;12.40;99.90
59128;DHT22;44912;52.754;5.994;2023-04-16T10:33:34;12.40;99.90
59128;DHT22;44912;52.754;5.994;2023-04-16T10:36:09;12.40;99.90
59128;DHT22;44912;52.754;5.994;2023-04-16T10:38:44;12.40;99.90
59128;DHT22;44912;52.754;5.994;2023-04-16T10:41:10;12.30;99.90
59128;DHT22;44912;52.754;5.994;2023-04-16T10:43:51;12.40;99.90
59128;DHT22;44912;52.754;5.994;2023-04-16T10:46:43;12.50;99.90
59128;DHT22;44912;52.754;5.994;2023-04-16T10:49:21;12.60;99.90
59128;DHT22;44912;52.754;5.994;2023-04-16T10:51:57;12.50;99.90
59128;DHT22;44912;52.754;5.994;2023-04-16T10:54:30;12.50;99.90
59128;DHT22;44912;52.754;5.994;2023-04-16T10:57:18;12.50;99.90
59128;DHT22;44912;52.754;5.994;2023-04-16T10:59:43;12.40;99.90
59128;DHT22;44912;52.754;5.994;2023-04-16T11:02:15;12.40;99.90
59128;DHT22;44912;52.754;5.994;2023-04-16T11:04:43;12.30;99.90
59128;DHT22;44912;52.754;5.994;2023-04-16T11:12:11;12.30;99.90
59128;DHT22;44912;52.754;5.994;2023-04-16T11:14:39;12.40;99.90
59128;DHT22;44912;52.754;5.994;2023-04-16T11:17:05;12.40;99.90
59128;DHT22;44912;52.754;5.994;2023-04-16T11:19:31;12.40;99.90
59128;DHT22;44912;52.754;5.994;2023-04-16T11:21:57;12.30;99.90
59128;DHT22;44912;52.754;5.994;2023-04-16T11:24:23;12.30;99.90
59128;DHT22;44912;52.754;5.994;2023-04-16T11:26:53;12.40;99.90
59128;DHT22;44912;52.754;5.994;2023-04-16T11:29:18;12.40;99.90
59128;DHT22;44912;52.754;5.994;2023-04-16T11:31:51;12.60;99.90
59128;DHT22;44912;52.754;5.994;2023-04-16T11:34:18;12.70;99.90
59128;DHT22;44912;52.754;5.994;2023-04-16T11:36:48;12.80;99.90
59128;DHT22;44912;52.754;5.994;2023-04-16T11:39:14;12.80;99.90
59128;DHT22;44912;52.754;5.994;2023-04-16T11:41:46;12.80;99.90
59128;DHT22;44912;52.754;5.994;2023-04-16T11:44:24;12.90;99.90
59128;DHT22;44912;52.754;5.994;2023-04-16T11:46:51;12.90;99.90
59128;DHT22;44912;52.754;5.994;2023-04-16T11:49:26;12.90;99.90
59128;DHT22;44912;52.754;5.994;2023-04-16T11:51:52;12.90;99.90
59128;DHT22;44912;52.754;5.994;2023-04-16T11:54:21;12.90;99.90
59128;DHT22;44912;52.754;5.994;2023-04-16T11:56:48;12.80;99.90
59128;DHT22;44912;52.754;5.994;2023-04-16T11:59:22;12.80;99.90
59128;DHT22;44912;52.754;5.994;2023-04-16T12:01:52;12.70;99.90
59128;DHT22;44912;52.754;5.994;2023-04-16T12:04:21;12.70;99.90
59128;DHT22;44912;52.754;5.994;2023-04-16T12:09:33;12.60;99.90
59128;DHT22;44912;52.754;5.994;2023-04-16T12:12:02;12.70;99.90
59128;DHT22;44912;52.754;5.994;2023-04-16T12:14:28;12.80;99.90
59128;DHT22;44912;52.754;5.994;2023-04-16T12:16:55;12.80;99.90
59128;DHT22;44912;52.754;5.994;2023-04-16T12:19:20;12.80;99.90
59128;DHT22;44912;52.754;5.994;2023-04-16T12:21:48;12.80;99.90
59128;DHT22;44912;52.754;5.994;2023-04-16T12:24:15;12.90;99.90
59128;DHT22;44912;52.754;5.994;2023-04-16T12:26:42;12.90;99.90
59128;DHT22;44912;52.754;5.994;2023-04-16T12:29:26;12.90;99.90
59128;DHT22;44912;52.754;5.994;2023-04-16T12:31:53;13.00;99.90
59128;DHT22;44912;52.754;5.994;2023-04-16T12:34:20;13.00;99.90
59128;DHT22;44912;52.754;5.994;2023-04-16T12:36:46;13.00;99.90
59128;DHT22;44912;52.754;5.994;2023-04-16T12:39:13;13.10;99.90
59128;DHT22;44912;52.754;5.994;2023-04-16T12:41:41;13.30;99.90
59128;DHT22;44912;52.754;5.994;2023-04-16T12:44:15;13.40;99.90
59128;DHT22;44912;52.754;5.994;2023-04-16T12:46:42;13.60;99.90
59128;DHT22;44912;52.754;5.994;2023-04-16T12:49:08;13.50;99.90
59128;DHT22;44912;52.754;5.994;2023-04-16T12:51:35;13.50;99.90
59128;DHT22;44912;52.754;5.994;2023-04-16T12:54:02;13.50;99.90
59128;DHT22;44912;52.754;5.994;2023-04-16T12:56:29;13.50;99.90
59128;DHT22;44912;52.754;5.994;2023-04-16T12:58:55;13.50;99.90
59128;DHT22;44912;52.754;5.994;2023-04-16T13:01:21;13.50;99.90
59128;DHT22;44912;52.754;5.994;2023-04-16T13:03:47;13.60;99.90
59128;DHT22;44912;52.754;5.994;2023-04-16T13:06:13;13.70;99.90
59128;DHT22;44912;52.754;5.994;2023-04-16T13:08:40;13.70;99.90
59128;DHT22;44912;52.754;5.994;2023-04-16T13:11:06;13.80;99.90
59128;DHT22;44912;52.754;5.994;2023-04-16T13:13:32;13.80;99.90
59128;DHT22;44912;52.754;5.994;2023-04-16T13:15:58;13.90;99.90
59128;DHT22;44912;52.754;5.994;2023-04-16T13:18:25;13.90;99.90
59128;DHT22;44912;52.754;5.994;2023-04-16T13:20:52;13.70;99.90
59128;DHT22;44912;52.754;5.994;2023-04-16T13:23:18;13.80;99.90
59128;DHT22;44912;52.754;5.994;2023-04-16T13:25:43;13.80;99.90
59128;DHT22;44912;52.754;5.994;2023-04-16T13:28:09;13.90;99.90
59128;DHT22;44912;52.754;5.994;2023-04-16T13:30:34;13.90;99.90
59128;DHT22;44912;52.754;5.994;2023-04-16T13:33:00;14.00;99.90
59128;DHT22;44912;52.754;5.994;2023-04-16T13:35:26;14.20;99.90
59128;DHT22;44912;52.754;5.994;2023-04-16T13:37:52;14.40;99.90
59128;DHT22;44912;52.754;5.994;2023-04-16T13:40:17;14.30;99.90
59128;DHT22;44912;52.754;5.994;2023-04-16T13:42:43;14.30;99.90
59128;DHT22;44912;52.754;5.994;2023-04-16T13:45:09;14.20;99.90
59128;DHT22;44912;52.754;5.994;2023-04-16T13:47:34;14.20;99.90
59128;DHT22;44912;52.754;5.994;2023-04-16T13:50:00;14.20;99.90
59128;DHT22;44912;52.754;5.994;2023-04-16T13:52:26;14.20;99.90
59128;DHT22;44912;52.754;5.994;2023-04-16T13:54:52;14.30;99.90
59128;DHT22;44912;52.754;5.994;2023-04-16T13:57:17;14.20;99.90
59128;DHT22;44912;52.754;5.994;2023-04-16T13:59:44;14.10;99.90
59128;DHT22;44912;52.754;5.994;2023-04-16T14:02:10;14.10;99.90
59128;DHT22;44912;52.754;5.994;2023-04-16T14:04:35;14.00;99.90
59128;DHT22;44912;52.754;5.994;2023-04-16T14:07:01;14.00;99.90
59128;DHT22;44912;52.754;5.994;2023-04-16T14:09:26;14.00;99.90
59128;DHT22;44912;52.754;5.994;2023-04-16T14:11:52;14.20;99.90
59128;DHT22;44912;52.754;5.994;2023-04-16T14:14:18;14.30;99.90
59128;DHT22;44912;52.754;5.994;2023-04-16T14:16:43;14.20;99.90
59128;DHT22;44912;52.754;5.994;2023-04-16T14:19:09;14.00;99.90
59128;DHT22;44912;52.754;5.994;2023-04-16T14:21:35;13.90;99.90
59128;DHT22;44912;52.754;5.994;2023-04-16T14:24:01;13.70;99.90
59128;DHT22;44912;52.754;5.994;2023-04-16T14:26:27;13.60;99.90
59128;DHT22;44912;52.754;5.994;2023-04-16T14:28:53;13.50;99.90
59128;DHT22;44912;52.754;5.994;2023-04-16T14:31:18;13.40;99.90
59128;DHT22;44912;52.754;5.994;2023-04-16T14:33:44;13.40;99.90
59128;DHT22;44912;52.754;5.994;2023-04-16T14:36:11;13.50;99.90
59128;DHT22;44912;52.754;5.994;2023-04-16T14:38:36;13.50;99.90
59128;DHT22;44912;52.754;5.994;2023-04-16T14:41:02;13.40;99.90
59128;DHT22;44912;52.754;5.994;2023-04-16T14:43:27;13.50;99.90
59128;DHT22;44912;52.754;5.994;2023-04-16T14:45:53;13.60;99.90
59128;DHT22;44912;52.754;5.994;2023-04-16T14:48:19;13.50;99.90
59128;DHT22;44912;52.754;5.994;2023-04-16T14:50:44;13.50;99.90
59128;DHT22;44912;52.754;5.994;2023-04-16T14:53:10;13.60;99.90
59128;DHT22;44912;52.754;5.994;2023-04-16T14:55:36;13.60;99.90
59128;DHT22;44912;52.754;5.994;2023-04-16T14:58:02;13.60;99.90
59128;DHT22;44912;52.754;5.994;2023-04-16T15:00:28;13.60;99.90
59128;DHT22;44912;52.754;5.994;2023-04-16T15:02:54;13.50;99.90
59128;DHT22;44912;52.754;5.994;2023-04-16T15:05:20;13.60;99.90
59128;DHT22;44912;52.754;5.994;2023-04-16T15:07:46;13.70;99.90
59128;DHT22;44912;52.754;5.994;2023-04-16T15:10:12;13.70;99.90
59128;DHT22;44912;52.754;5.994;2023-04-16T15:12:38;13.70;99.90
59128;DHT22;44912;52.754;5.994;2023-04-16T15:15:07;13.70;99.90
59128;DHT22;44912;52.754;5.994;2023-04-16T15:17:33;13.70;99.90
59128;DHT22;44912;52.754;5.994;2023-04-16T15:19:58;13.80;99.90
59128;DHT22;44912;52.754;5.994;2023-04-16T15:22:24;13.70;99.90
59128;DHT22;44912;52.754;5.994;2023-04-16T15:24:50;13.70;99.90
59128;DHT22;44912;52.754;5.994;2023-04-16T15:27:16;13.70;99.90
59128;DHT22;44912;52.754;5.994;2023-04-16T15:29:42;13.90;99.90
59128;DHT22;44912;52.754;5.994;2023-04-16T15:32:11;14.10;99.90
59128;DHT22;44912;52.754;5.994;2023-04-16T15:34:36;14.20;99.90
59128;DHT22;44912;52.754;5.994;2023-04-16T15:37:02;14.40;99.90
59128;DHT22;44912;52.754;5.994;2023-04-16T15:39:29;14.60;99.90
59128;DHT22;44912;52.754;5.994;2023-04-16T15:41:55;14.80;99.90